createdAt,value
2022-11-18T00:01:15.767Z,7.82
2022-11-18T00:03:43.321Z,7.63
2022-11-18T00:06:16.104Z,7.30
2022-11-18T00:08:43.263Z,7.32
2022-11-18T00:11:35.605Z,7.47
2022-11-18T00:14:20.479Z,8.55
2022-11-18T00:16:55.312Z,7.55
2022-11-18T00:19:34.152Z,7.28
2022-11-18T00:22:01.602Z,7.65
2022-11-18T00:24:28.607Z,7.32
2022-11-18T00:26:55.632Z,7.00
2022-11-18T00:29:23.136Z,5.05
2022-11-18T00:31:49.799Z,5.10
2022-11-18T00:34:18.350Z,4.25
2022-11-18T00:36:46.136Z,4.57
2022-11-18T00:39:15.551Z,4.38
2022-11-18T00:42:01.330Z,4.22
2022-11-18T00:44:27.920Z,4.22
2022-11-18T00:46:54.645Z,3.55
2022-11-18T00:49:21.545Z,3.97
2022-11-18T00:51:48.217Z,3.20
2022-11-18T00:54:14.780Z,3.25
2022-11-18T00:56:41.464Z,3.40
2022-11-18T00:59:08.369Z,2.92
2022-11-18T01:01:35.110Z,3.10
2022-11-18T01:04:01.885Z,3.28
2022-11-18T01:06:28.725Z,3.50
2022-11-18T01:08:55.365Z,2.85
2022-11-18T01:11:40.375Z,2.47
2022-11-18T01:14:07.042Z,2.72
2022-11-18T01:16:33.653Z,3.00
2022-11-18T01:19:00.299Z,3.25
2022-11-18T01:21:29.237Z,2.90
2022-11-18T01:23:55.929Z,3.25
2022-11-18T01:26:22.598Z,3.60
2022-11-18T01:28:49.395Z,3.03
2022-11-18T01:31:19.061Z,3.30
2022-11-18T01:33:47.015Z,2.88
2022-11-18T01:36:24.542Z,3.03
2022-11-18T01:38:52.410Z,2.75
2022-11-18T01:41:20.886Z,2.45
2022-11-18T01:43:49.022Z,2.33
2022-11-18T01:46:16.085Z,2.30
2022-11-18T01:48:43.970Z,3.10
2022-11-18T01:51:16.315Z,2.30
2022-11-18T01:53:51.833Z,2.43
2022-11-18T01:56:23.923Z,2.55
2022-11-18T01:58:57.404Z,2.60
2022-11-18T02:01:24.178Z,3.05
2022-11-18T02:03:51.774Z,3.33
2022-11-18T02:06:18.817Z,2.75
2022-11-18T02:08:45.766Z,2.50
2022-11-18T02:11:35.134Z,3.00
2022-11-18T02:14:05.092Z,2.90
2022-11-18T02:16:43.868Z,2.20
2022-11-18T02:19:38.319Z,2.53
2022-11-18T02:22:29.580Z,2.53
2022-11-18T02:25:00.821Z,2.28
2022-11-18T02:28:09.303Z,2.78
2022-11-18T02:30:56.754Z,2.53
2022-11-18T02:33:29.165Z,2.00
2022-11-18T02:36:10.292Z,2.65
2022-11-18T02:38:46.002Z,2.17
2022-11-18T02:41:25.265Z,2.28
2022-11-18T02:44:00.049Z,2.70
2022-11-18T02:46:35.441Z,2.10
2022-11-18T02:49:06.373Z,2.17
2022-11-18T02:51:35.076Z,2.22
2022-11-18T02:54:07.004Z,2.30
2022-11-18T02:56:35.613Z,1.90
2022-11-18T02:59:04.000Z,2.20
2022-11-18T03:01:33.737Z,2.60
2022-11-18T03:04:00.406Z,2.13
2022-11-18T03:06:50.129Z,3.03
2022-11-18T03:09:35.135Z,2.10
2022-11-18T03:12:30.457Z,2.33
2022-11-18T03:15:44.833Z,2.30
2022-11-18T03:18:25.465Z,2.10
2022-11-18T03:21:17.607Z,2.30
2022-11-18T03:24:08.665Z,2.22
2022-11-18T03:26:40.696Z,2.28
2022-11-18T03:29:16.514Z,1.90
2022-11-18T03:31:47.464Z,2.00
2022-11-18T03:34:21.108Z,1.88
2022-11-18T03:36:52.337Z,1.70
2022-11-18T03:39:21.917Z,1.92
2022-11-18T03:42:14.417Z,2.47
2022-11-18T03:44:52.066Z,1.90
2022-11-18T03:47:33.812Z,1.90
2022-11-18T03:50:22.862Z,1.98
2022-11-18T03:52:51.107Z,2.45
2022-11-18T03:55:27.345Z,2.20
2022-11-18T03:58:03.578Z,2.03
2022-11-18T04:00:37.686Z,1.92
2022-11-18T04:03:04.566Z,6.53
2022-11-18T04:05:36.197Z,3.30
2022-11-18T04:08:07.516Z,2.00
2022-11-18T04:10:40.753Z,1.70
2022-11-18T04:15:38.158Z,1.70
2022-11-18T04:18:05.333Z,1.75
2022-11-18T04:20:33.244Z,1.92
2022-11-18T04:23:00.794Z,2.20
2022-11-18T04:25:27.686Z,1.45
2022-11-18T04:27:54.301Z,1.70
2022-11-18T04:30:21.028Z,1.70
2022-11-18T04:32:47.958Z,1.73
2022-11-18T04:35:15.101Z,1.80
2022-11-18T04:37:41.862Z,2.03
2022-11-18T04:40:09.633Z,1.95
2022-11-18T04:42:36.545Z,1.85
2022-11-18T04:45:03.528Z,2.00
2022-11-18T04:47:30.208Z,2.00
2022-11-18T04:49:56.973Z,1.55
2022-11-18T04:52:23.575Z,1.80
2022-11-18T04:54:50.324Z,1.85
2022-11-18T04:57:17.001Z,1.77
2022-11-18T04:59:43.603Z,2.00
2022-11-18T05:02:10.237Z,1.90
2022-11-18T05:04:36.868Z,2.33
2022-11-18T05:07:05.411Z,2.92
2022-11-18T05:09:32.629Z,3.50
2022-11-18T05:12:18.607Z,6.88
2022-11-18T05:14:50.215Z,7.60
2022-11-18T05:17:17.611Z,5.13
2022-11-18T05:19:44.251Z,4.97
2022-11-18T05:22:10.885Z,6.25
2022-11-18T05:24:37.531Z,4.60
2022-11-18T05:27:04.147Z,5.70
2022-11-18T05:29:30.787Z,5.30
2022-11-18T05:31:57.408Z,6.05
2022-11-18T05:34:24.068Z,3.90
2022-11-18T05:36:50.843Z,2.67
2022-11-18T05:39:18.753Z,2.67
2022-11-18T05:42:04.162Z,2.30
2022-11-18T05:44:31.876Z,2.30
2022-11-18T05:46:58.513Z,2.80
2022-11-18T05:49:25.654Z,2.78
2022-11-18T05:51:52.205Z,2.50
2022-11-18T05:54:21.077Z,2.20
2022-11-18T05:56:47.745Z,2.58
2022-11-18T05:59:14.609Z,2.30
2022-11-18T06:01:49.299Z,2.80
2022-11-18T06:04:20.741Z,2.22
2022-11-18T06:06:52.415Z,2.30
2022-11-18T06:09:23.992Z,2.42
2022-11-18T06:11:57.029Z,2.40
2022-11-18T06:14:30.634Z,2.38
2022-11-18T06:17:01.153Z,2.20
2022-11-18T06:19:28.031Z,2.15
2022-11-18T06:21:54.981Z,2.25
2022-11-18T06:24:21.636Z,2.30
2022-11-18T06:26:48.941Z,2.17
2022-11-18T06:29:21.741Z,2.08
2022-11-18T06:31:52.708Z,2.58
2022-11-18T06:34:19.358Z,2.40
2022-11-18T06:36:45.953Z,1.85
2022-11-18T06:39:12.537Z,1.60
2022-11-18T06:41:39.186Z,2.00
2022-11-18T06:44:05.884Z,1.88
2022-11-18T06:46:51.840Z,1.42
2022-11-18T06:49:18.628Z,0.90
2022-11-18T06:51:45.460Z,0.90
2022-11-18T06:54:12.448Z,0.73
2022-11-18T06:56:39.327Z,0.77
2022-11-18T06:59:06.033Z,1.25
2022-11-18T07:01:36.266Z,0.95
2022-11-18T07:04:04.711Z,1.15
2022-11-18T07:06:33.512Z,0.80
2022-11-18T07:09:02.380Z,0.70
2022-11-18T07:11:29.409Z,0.40
2022-11-18T07:13:56.705Z,0.55
2022-11-18T07:16:25.190Z,0.70
2022-11-18T07:18:53.612Z,0.70
2022-11-18T07:21:26.503Z,0.82
2022-11-18T07:23:54.140Z,0.73
2022-11-18T07:26:21.685Z,0.90
2022-11-18T07:28:48.492Z,0.70
2022-11-18T07:31:17.150Z,0.80
2022-11-18T07:33:44.824Z,0.98
2022-11-18T07:36:17.936Z,0.57
2022-11-18T07:38:45.346Z,0.70
2022-11-18T07:41:13.338Z,0.77
2022-11-18T07:43:40.753Z,0.90
2022-11-18T07:46:22.009Z,0.80
2022-11-18T07:48:50.821Z,0.73
2022-11-18T07:51:19.541Z,1.00
2022-11-18T07:53:46.609Z,2.38
2022-11-18T07:56:14.232Z,1.92
2022-11-18T07:58:42.210Z,1.00
2022-11-18T08:01:17.718Z,1.17
2022-11-18T08:03:45.940Z,1.20
2022-11-18T08:06:14.988Z,1.20
2022-11-18T08:08:43.194Z,1.20
2022-11-18T08:11:17.462Z,1.00
2022-11-18T08:13:47.278Z,1.20
2022-11-18T08:16:16.553Z,0.77
2022-11-18T08:18:43.514Z,1.00
2022-11-18T08:21:10.809Z,0.70
2022-11-18T08:23:41.752Z,0.77
2022-11-18T08:26:13.279Z,0.60
2022-11-18T08:28:44.562Z,0.75
2022-11-18T08:31:24.873Z,0.70
2022-11-18T08:34:09.526Z,0.57
2022-11-18T08:36:38.102Z,0.50
2022-11-18T08:39:08.364Z,0.47
2022-11-18T08:41:40.589Z,0.40
2022-11-18T08:44:10.215Z,0.55
2022-11-18T08:46:36.889Z,0.50
2022-11-18T08:49:03.750Z,0.45
2022-11-18T08:51:30.585Z,0.43
2022-11-18T08:53:57.496Z,0.60
2022-11-18T08:56:25.253Z,0.40
2022-11-18T08:58:53.046Z,3.78
2022-11-18T09:01:19.846Z,2.42
2022-11-18T09:03:48.384Z,1.55
2022-11-18T09:06:20.965Z,0.70
2022-11-18T09:08:47.942Z,0.70
2022-11-18T09:11:21.009Z,1.95
2022-11-18T09:16:38.488Z,1.10
2022-11-18T09:19:24.878Z,0.60
2022-11-18T09:21:52.033Z,1.45
2022-11-18T09:24:18.991Z,1.10
2022-11-18T09:26:46.160Z,0.90
2022-11-18T09:29:12.794Z,0.80
2022-11-18T09:31:39.409Z,0.50
2022-11-18T09:34:06.056Z,0.63
2022-11-18T09:36:32.626Z,0.70
2022-11-18T09:38:59.896Z,0.60
2022-11-18T09:41:29.260Z,1.55
2022-11-18T09:44:30.823Z,0.70
2022-11-18T09:47:22.954Z,1.55
2022-11-18T09:49:49.809Z,1.10
2022-11-18T09:52:47.545Z,1.00
2022-11-18T09:55:16.665Z,1.00
2022-11-18T09:57:50.187Z,1.25
2022-11-18T10:00:17.981Z,1.05
2022-11-18T10:03:06.584Z,0.80
2022-11-18T10:05:49.074Z,0.70
2022-11-18T10:08:21.448Z,0.75
2022-11-18T10:11:07.900Z,1.05
2022-11-18T10:13:56.958Z,1.38
2022-11-18T10:17:05.241Z,1.23
2022-11-18T10:19:43.084Z,0.93
2022-11-18T10:22:25.937Z,0.80
2022-11-18T10:24:55.185Z,1.20
2022-11-18T10:27:27.260Z,0.85
2022-11-18T10:29:58.200Z,0.50
2022-11-18T10:32:24.807Z,1.05
2022-11-18T10:34:51.370Z,0.80
2022-11-18T10:38:06.228Z,0.80
2022-11-18T10:40:29.551Z,1.08
2022-11-18T10:42:56.576Z,0.80
2022-11-18T10:45:23.112Z,0.80
2022-11-18T10:48:10.599Z,0.52
2022-11-18T10:50:42.030Z,1.08
2022-11-18T10:53:44.436Z,1.00
2022-11-18T10:56:15.975Z,1.20
2022-11-18T10:58:46.472Z,1.02
2022-11-18T11:01:16.147Z,2.30
2022-11-18T11:03:52.181Z,3.20
2022-11-18T11:06:31.181Z,1.25
2022-11-18T11:09:12.944Z,1.08
2022-11-18T11:11:43.628Z,0.60
2022-11-18T11:14:43.536Z,0.65
2022-11-18T11:17:18.803Z,0.40
2022-11-18T11:20:23.932Z,0.65
2022-11-18T11:22:50.575Z,0.63
2022-11-18T11:25:24.142Z,0.43
2022-11-18T11:28:22.677Z,0.80
2022-11-18T11:31:07.896Z,1.17
2022-11-18T11:33:55.569Z,0.80
2022-11-18T11:36:41.247Z,0.60
2022-11-18T11:39:29.265Z,3.30
2022-11-18T11:42:33.382Z,0.82
2022-11-18T11:45:06.059Z,0.70
2022-11-18T11:47:47.486Z,0.60
2022-11-18T11:50:18.659Z,0.68
2022-11-18T11:53:03.795Z,1.20
2022-11-18T11:55:45.590Z,0.70
2022-11-18T11:58:28.408Z,0.93
2022-11-18T12:01:17.761Z,1.50
2022-11-18T12:04:19.816Z,3.20
2022-11-18T12:06:51.610Z,1.00
2022-11-18T12:09:31.534Z,0.68
2022-11-18T12:12:34.868Z,0.65
2022-11-18T12:15:16.801Z,0.80
2022-11-18T12:18:12.813Z,0.73
2022-11-18T12:20:45.723Z,1.00
2022-11-18T12:23:17.827Z,0.80
2022-11-18T12:26:10.617Z,2.00
2022-11-18T12:28:43.729Z,2.10
2022-11-18T12:31:19.233Z,1.00
2022-11-18T12:33:54.846Z,0.90
2022-11-18T12:36:31.717Z,0.43
2022-11-18T12:39:19.016Z,0.80
2022-11-18T12:42:04.188Z,0.50
2022-11-18T12:44:31.356Z,0.63
2022-11-18T12:47:02.131Z,1.10
2022-11-18T12:49:28.653Z,0.70
2022-11-18T12:51:57.662Z,1.60
2022-11-18T12:54:32.243Z,0.60
2022-11-18T12:57:02.585Z,1.00
2022-11-18T12:59:35.560Z,0.60
2022-11-18T13:02:26.540Z,0.50
2022-11-18T13:05:23.902Z,1.23
2022-11-18T13:08:14.903Z,0.93
2022-11-18T13:10:50.411Z,0.90
2022-11-18T13:13:23.033Z,1.30
2022-11-18T13:16:09.938Z,0.70
2022-11-18T13:18:51.957Z,0.65
2022-11-18T13:21:47.466Z,1.08
2022-11-18T13:24:16.748Z,1.20
2022-11-18T13:26:45.260Z,1.15
2022-11-18T13:29:26.779Z,0.70
2022-11-18T13:32:05.599Z,1.00
2022-11-18T13:34:40.784Z,1.10
2022-11-18T13:37:17.426Z,1.42
2022-11-18T13:39:45.992Z,1.15
2022-11-18T13:42:21.540Z,1.20
2022-11-18T13:45:14.697Z,0.82
2022-11-18T13:48:08.345Z,1.13
2022-11-18T13:53:13.974Z,1.10
2022-11-18T13:56:05.613Z,1.00
2022-11-18T14:01:37.838Z,1.15
2022-11-18T14:04:22.139Z,0.77
2022-11-18T14:06:49.309Z,1.00
2022-11-18T14:09:26.155Z,0.90
2022-11-18T14:12:09.163Z,0.88
2022-11-18T14:14:38.120Z,2.05
2022-11-18T14:17:19.590Z,1.10
2022-11-18T14:19:48.636Z,1.90
2022-11-18T14:22:21.557Z,2.70
2022-11-18T14:25:22.806Z,1.00
2022-11-18T14:27:51.513Z,1.30
2022-11-18T14:30:35.176Z,1.77
2022-11-18T14:33:13.834Z,1.40
2022-11-18T14:35:43.137Z,1.70
2022-11-18T14:38:57.584Z,3.60
2022-11-18T14:41:45.546Z,1.20
2022-11-18T14:44:13.716Z,1.42
2022-11-18T14:46:43.230Z,0.98
2022-11-18T14:49:14.695Z,1.42
2022-11-18T14:51:41.248Z,1.70
2022-11-18T14:54:12.942Z,0.60
2022-11-18T14:56:39.710Z,0.90
2022-11-18T14:59:06.313Z,1.00
2022-11-18T15:01:33.105Z,1.85
2022-11-18T15:03:59.760Z,2.15
2022-11-18T15:06:26.956Z,1.40
2022-11-18T15:08:53.568Z,1.08
2022-11-18T15:11:20.532Z,0.95
2022-11-18T15:13:47.716Z,1.40
2022-11-18T15:16:19.648Z,1.20
2022-11-18T15:18:48.900Z,0.93
2022-11-18T15:21:16.245Z,1.20
2022-11-18T15:23:43.712Z,2.08
2022-11-18T15:26:26.350Z,1.17
2022-11-18T15:28:55.224Z,1.48
2022-11-18T15:31:22.783Z,2.00
2022-11-18T15:33:51.099Z,3.90
2022-11-18T15:36:23.193Z,3.28
2022-11-18T15:38:51.463Z,4.53
2022-11-18T15:41:23.069Z,3.25
2022-11-18T15:43:50.447Z,1.40
2022-11-18T15:46:19.468Z,0.95
2022-11-18T15:48:46.945Z,0.63
2022-11-18T15:51:14.713Z,1.10
2022-11-18T15:53:41.358Z,1.40
2022-11-18T15:56:20.538Z,0.77
2022-11-18T15:58:58.968Z,1.05
2022-11-18T16:01:28.057Z,1.30
2022-11-18T16:03:55.014Z,0.90
2022-11-18T16:06:22.432Z,0.50
2022-11-18T16:08:52.106Z,0.60
2022-11-18T16:11:39.718Z,0.55
2022-11-18T16:14:08.978Z,0.80
2022-11-18T16:16:36.217Z,0.57
2022-11-18T16:19:09.177Z,0.47
2022-11-18T16:21:38.137Z,0.57
2022-11-18T16:24:07.489Z,0.98
2022-11-18T16:26:34.917Z,0.68
2022-11-18T16:29:01.782Z,0.60
2022-11-18T16:31:40.379Z,0.47
2022-11-18T16:34:16.070Z,0.70
2022-11-18T16:36:47.778Z,0.70
2022-11-18T16:39:17.362Z,0.57
2022-11-18T16:41:45.330Z,0.60
2022-11-18T16:44:14.219Z,0.70
2022-11-18T16:46:49.470Z,0.65
2022-11-18T16:49:18.100Z,0.88
2022-11-18T16:51:47.549Z,0.82
2022-11-18T16:54:18.513Z,1.40
2022-11-18T16:56:45.570Z,0.80
2022-11-18T16:59:15.227Z,0.95
2022-11-18T17:01:42.626Z,0.70
2022-11-18T17:04:11.714Z,1.10
2022-11-18T17:06:39.333Z,1.00
2022-11-18T17:09:07.524Z,0.63
2022-11-18T17:11:34.806Z,0.90
2022-11-18T17:14:01.451Z,0.88
2022-11-18T17:16:28.196Z,0.73
2022-11-18T17:18:59.845Z,0.70
2022-11-18T17:21:28.358Z,0.77
2022-11-18T17:23:55.807Z,0.90
2022-11-18T17:26:25.494Z,0.70
2022-11-18T17:28:52.555Z,0.70
2022-11-18T17:31:21.365Z,0.43
2022-11-18T17:33:48.883Z,0.60
2022-11-18T17:36:18.025Z,0.60
2022-11-18T17:38:46.797Z,0.82
2022-11-18T17:41:34.291Z,0.70
2022-11-18T17:44:03.214Z,0.50
2022-11-18T17:46:36.354Z,1.00
2022-11-18T17:49:13.764Z,1.00
2022-11-18T17:51:40.654Z,1.25
2022-11-18T17:54:08.080Z,1.08
2022-11-18T17:56:34.782Z,1.00
2022-11-18T17:59:01.450Z,0.75
2022-11-18T18:01:28.150Z,0.85
2022-11-18T18:03:54.832Z,1.00
2022-11-18T18:06:21.587Z,0.77
2022-11-18T18:08:48.191Z,1.08
2022-11-18T18:11:17.774Z,1.50
2022-11-18T18:14:11.396Z,0.93
2022-11-18T18:16:40.379Z,1.10
2022-11-18T18:19:07.944Z,0.70
2022-11-18T18:21:35.788Z,0.70
2022-11-18T18:24:03.375Z,0.95
2022-11-18T18:26:31.869Z,1.00
2022-11-18T18:28:59.845Z,0.55
2022-11-18T18:31:27.147Z,1.00
2022-11-18T18:33:54.176Z,1.25
2022-11-18T18:36:21.627Z,0.60
2022-11-18T18:38:48.283Z,1.95
2022-11-18T18:41:17.249Z,0.80
2022-11-18T18:43:44.531Z,1.02
2022-11-18T18:46:28.853Z,0.90
2022-11-18T18:49:10.562Z,3.10
2022-11-18T18:51:37.218Z,1.42
2022-11-18T18:54:04.444Z,1.67
2022-11-18T18:56:31.898Z,1.33
2022-11-18T18:58:59.591Z,1.50
2022-11-18T19:01:27.704Z,0.80
2022-11-18T19:03:56.920Z,1.13
2022-11-18T19:09:12.465Z,1.52
2022-11-18T19:11:58.111Z,2.38
2022-11-18T19:14:25.209Z,3.30
2022-11-18T19:16:52.195Z,3.00
2022-11-18T19:19:40.437Z,2.90
2022-11-18T19:22:07.738Z,1.52
2022-11-18T19:24:48.630Z,1.40
2022-11-18T19:27:16.145Z,2.42
2022-11-18T19:29:42.724Z,2.47
2022-11-18T19:32:09.287Z,1.73
2022-11-18T19:34:35.866Z,2.40
2022-11-18T19:37:02.600Z,2.15
2022-11-18T19:39:29.184Z,1.98
2022-11-18T19:41:55.737Z,2.58
2022-11-18T19:44:22.351Z,1.95
2022-11-18T19:46:48.988Z,2.33
2022-11-18T19:49:15.595Z,2.80
2022-11-18T19:51:42.213Z,2.80
2022-11-18T19:54:08.770Z,2.70
2022-11-18T19:56:35.356Z,2.53
2022-11-18T19:59:01.915Z,2.40
2022-11-18T20:01:29.382Z,2.78
2022-11-18T20:03:58.034Z,1.70
2022-11-18T20:06:26.568Z,3.25
2022-11-18T20:08:54.488Z,2.17
2022-11-18T20:11:21.929Z,1.83
2022-11-18T20:13:48.510Z,2.08
2022-11-18T20:16:22.513Z,2.30
2022-11-18T20:19:06.335Z,2.60
2022-11-18T20:21:36.016Z,1.95
2022-11-18T20:24:04.769Z,2.38
2022-11-18T20:26:34.340Z,2.30
2022-11-18T20:29:01.588Z,2.40
2022-11-18T20:31:28.787Z,2.53
2022-11-18T20:33:56.673Z,2.13
2022-11-18T20:36:27.339Z,2.30
2022-11-18T20:38:56.760Z,2.30
2022-11-18T20:41:24.558Z,1.80
2022-11-18T20:43:51.108Z,2.63
2022-11-18T20:46:20.996Z,2.20
2022-11-18T20:48:49.065Z,2.33
2022-11-18T20:51:21.321Z,1.95
2022-11-18T20:53:47.901Z,2.07
2022-11-18T20:56:23.243Z,1.83
2022-11-18T20:58:50.529Z,1.90
2022-11-18T21:01:28.538Z,2.00
2022-11-18T21:04:03.567Z,2.00
2022-11-18T21:06:32.167Z,2.30
2022-11-18T21:09:00.987Z,2.15
2022-11-18T21:11:28.028Z,2.20
2022-11-18T21:14:14.325Z,2.47
2022-11-18T21:16:43.448Z,2.10
2022-11-18T21:19:10.748Z,2.55
2022-11-18T21:21:48.963Z,2.00
2022-11-18T21:24:17.896Z,2.20
2022-11-18T21:26:46.121Z,2.10
2022-11-18T21:29:14.545Z,2.28
2022-11-18T21:31:42.373Z,2.50
2022-11-18T21:34:10.087Z,2.47
2022-11-18T21:36:42.895Z,2.30
2022-11-18T21:39:12.114Z,2.22
2022-11-18T21:41:38.993Z,2.20
2022-11-18T21:44:09.610Z,2.50
2022-11-18T21:46:37.871Z,2.40
2022-11-18T21:49:05.400Z,2.30
2022-11-18T21:51:32.737Z,1.90
2022-11-18T21:54:00.392Z,2.53
2022-11-18T21:56:30.461Z,1.70
2022-11-18T21:58:58.861Z,2.03
2022-11-18T22:01:28.272Z,2.03
2022-11-18T22:03:57.361Z,2.17
2022-11-18T22:06:25.985Z,1.77
2022-11-18T22:08:53.150Z,1.90
2022-11-18T22:11:22.360Z,1.77
2022-11-18T22:13:51.869Z,2.00
2022-11-18T22:16:20.578Z,2.10
2022-11-18T22:18:54.763Z,1.75
2022-11-18T22:21:26.172Z,1.75
2022-11-18T22:23:53.125Z,1.73
2022-11-18T22:26:21.396Z,1.80
2022-11-18T22:28:53.577Z,1.75
2022-11-18T22:31:21.499Z,1.77
2022-11-18T22:33:52.127Z,1.88
2022-11-18T22:36:21.725Z,1.75
2022-11-18T22:38:48.960Z,1.50
2022-11-18T22:41:39.249Z,1.20
2022-11-18T22:44:08.215Z,1.60
2022-11-18T22:46:36.593Z,1.50
2022-11-18T22:49:03.801Z,1.45
2022-11-18T22:51:30.397Z,1.50
2022-11-18T22:54:22.685Z,1.48
2022-11-18T22:56:43.770Z,1.50
2022-11-18T22:59:11.924Z,1.52
2022-11-18T23:01:38.747Z,1.65
2022-11-18T23:04:05.519Z,1.90
2022-11-18T23:06:32.132Z,1.90
2022-11-18T23:08:58.756Z,1.60
2022-11-18T23:11:44.214Z,1.98
2022-11-18T23:14:11.123Z,1.60
2022-11-18T23:16:42.866Z,1.92
2022-11-18T23:19:14.463Z,1.60
2022-11-18T23:21:41.822Z,1.80
2022-11-18T23:24:15.575Z,1.75
2022-11-18T23:26:42.617Z,2.40
2022-11-18T23:29:10.038Z,1.83
2022-11-18T23:31:37.047Z,1.80
2022-11-18T23:34:03.632Z,1.65
2022-11-18T23:36:30.235Z,1.90
2022-11-18T23:38:56.869Z,1.80
2022-11-18T23:41:23.440Z,1.73
2022-11-18T23:43:52.077Z,1.70
2022-11-18T23:46:19.325Z,2.17
2022-11-18T23:48:46.719Z,1.38
2022-11-18T23:51:18.458Z,1.30
2022-11-18T23:53:48.268Z,1.52
2022-11-18T23:56:16.963Z,1.60
2022-11-18T23:58:46.085Z,1.23
